Meteo Giornale » Osservazioni meteo Russia » Magadan
ore: 14:00 - Osservazioni Meteo Magadan
Lat. 59° 33' N Lon. 150° 47' E Alt. 118 metri s.l.m.
19 °C
Sereno
Temp. 24 Ore
-2 °C
19 °C
Nord
3.6 Km/h
Dew point 5 °C
Umidità 39 %
Visibilità 10 Km
Il sole sorge alle ore 05:52
Il sole tramonta alle ore 20:01
| Data e Ora | Cielo e Fenomeni | T °C | DP °C | Um. % | Pres. hPa | Vis. km | Vento km/h | |
|---|---|---|---|---|---|---|---|---|
| Oggi h: 14:00 | Sereno | 19 | 5 | 39 | 1016 | 10 | N 3.6 | |
| Oggi h: 13:30 | Sereno | 19 | 8 | 48 | 1016 | 10 | N 3.6 | |
| Oggi h: 13:00 | Sereno | 17 | 9 | 59 | 1017 | 10 | N 3.6 | |
| Oggi h: 12:30 | Sereno | 16 | 9 | 63 | 1017 | 10 | N 3.6 | |
| Oggi h: 12:00 | Sereno | 15 | 8 | 62 | 1017 | 10 | N 3.6 | |
| Oggi h: 11:30 | Sereno | 14 | 8 | 67 | 1017 | 10 | N 3.6 | |
| Oggi h: 11:00 | Sereno | 12 | 8 | 76 | 1018 | 10 | N 3.6 | |
| Oggi h: 10:30 | Sereno | 11 | 7 | 76 | 1018 | 10 | N 3.6 | |
| Oggi h: 10:00 | Sereno | 9 | 7 | 87 | 1018 | 10 | N 3.6 | |
| Oggi h: 09:30 | Sereno | 7 | 6 | 93 | 1018 | 10 | N 3.6 | |
| Oggi h: 09:00 | Poco Nuvoloso | 6 | 4 | 86 | 1018 | 10 | N 0 | |
| Oggi h: 08:30 | Poco Nuvoloso | 4 | 3 | 93 | 1018 | 10 | N 3.6 | |
| Oggi h: 08:00 | Nuvoloso | 3 | 2 | 93 | 1018 | 10 | N 3.6 | |
| Oggi h: 07:33 | Nuvoloso | 1 | 1 | 100 | 1018 | 10 | N 0 | |
| Oggi h: 07:30 | Nuvoloso | 1 | 1 | 100 | 1018 | 10 | N 0 | |
| Oggi h: 07:06 | Foschia | 0 | 0 | 100 | 1018 | 5 | N 0 | |
| Oggi h: 07:00 | Molto Nuvoloso | 0 | 0 | 100 | 1018 | 6 | N 3.6 | |
| Oggi h: 06:39 | Molto Nuvoloso | 0 | 0 | 100 | 1018 | 10 | N 0 | |
| Oggi h: 06:30 | Nebbia a tratti | -1 | -1 | 100 | 1018 | 0.6 | N 3.6 | |
| Oggi h: 06:21 | Nebbia a tratti | -1 | -1 | 100 | 1018 | 0.5 | N 0 | |
| Oggi h: 06:18 | Nebbia a tratti | -1 | -1 | 100 | 1018 | 0.45 | N 0 | |
| Oggi h: 06:14 | Banco di nebbia | -1 | -1 | 100 | 1018 | 0.5 | N 0 | |
| Oggi h: 06:00 | Banco di nebbia | -2 | -2 | 100 | 1018 | 0.5 | N 0 | |
| Oggi h: 05:00 | Nuvoloso | -2 | -2 | 100 | 1018 | 10 | N 0 | |
| Oggi h: 04:00 | Sereno | -1 | -1 | 100 | 1018 | 10 | N 0 | |
| Oggi h: 03:00 | Sereno | 0 | 0 | 100 | 1018 | 10 | N 0 | |
| Oggi h: 02:00 | Sereno | 0 | 0 | 100 | 1018 | 10 | N 0 | |
| Oggi h: 01:00 | Sereno | 1 | 1 | 100 | 1018 | 10 | N 0 | |
| Oggi h: 00:00 | Sereno | 2 | 2 | 100 | 1018 | 10 | N 3.6 | |
| Ieri h: 23:00 | Sereno | 4 | 4 | 100 | 1018 | 10 | N 3.6 | |
| Ieri h: 22:00 | Sereno | 5 | 5 | 100 | 1018 | 10 | N 0 | |
| Ieri h: 21:00 | Sereno | 7 | 6 | 93 | 1018 | 10 | N 3.6 | |
| Ieri h: 20:00 | Sereno | 11 | 7 | 76 | 1018 | 10 | N 3.6 | |
| Ieri h: 19:30 | Sereno | 12 | 7 | 71 | 1018 | 10 | N 0 | |
| Ieri h: 19:00 | Sereno | 13 | 7 | 66 | 1018 | 10 | N 7.2 | |
| Ieri h: 18:30 | Sereno | 14 | 8 | 67 | 1017 | 10 | SO 10.8 | |
| Ieri h: 18:00 | Sereno | 15 | 8 | 62 | 1017 | 10 | SO 18 | |
| Ieri h: 17:30 | Sereno | 16 | 8 | 58 | 1017 | 10 | S/SO 18 | |
| Ieri h: 17:00 | Sereno | 17 | 8 | 55 | 1017 | 10 | S/SO 18 | |
| Ieri h: 16:30 | Sereno | 17 | 7 | 51 | 1017 | 10 | S/SO 18 | |
| Ieri h: 16:00 | Sereno | 18 | 7 | 48 | 1017 | 10 | SO 18 | |
| Ieri h: 15:30 | Sereno | 19 | 7 | 45 | 1017 | 10 | S/SO 14.4 | |
| Ieri h: 15:00 | Sereno | 19 | 7 | 45 | 1018 | 10 | SO 10.8 | |



